createdAt,value
2023-09-05T00:01:55.327Z,52.96
2023-09-05T00:04:23.090Z,52.91
2023-09-05T00:06:50.849Z,53.05
2023-09-05T00:09:20.471Z,53.04
2023-09-05T00:11:48.411Z,52.82
2023-09-05T00:14:19.486Z,52.69
2023-09-05T00:16:47.282Z,53.34
2023-09-05T00:19:15.026Z,53.33
2023-09-05T00:21:42.763Z,53.25
2023-09-05T00:24:28.987Z,53.24
2023-09-05T00:26:57.145Z,52.96
2023-09-05T00:29:25.496Z,52.93
2023-09-05T00:31:54.499Z,52.82
2023-09-05T00:34:22.348Z,52.81
2023-09-05T00:36:50.166Z,52.47
2023-09-05T00:39:18.482Z,52.32
2023-09-05T00:41:48.068Z,53.16
2023-09-05T00:44:16.206Z,52.41
2023-09-05T00:46:46.430Z,52.84
2023-09-05T00:49:17.289Z,53.22
2023-09-05T00:51:47.171Z,52.94
2023-09-05T00:54:15.103Z,53.06
2023-09-05T00:56:42.999Z,53.14
2023-09-05T00:59:12.458Z,53.27
2023-09-05T01:01:40.403Z,52.91
2023-09-05T01:04:08.530Z,53.17
2023-09-05T01:06:55.173Z,52.71
2023-09-05T01:09:31.644Z,53.15
2023-09-05T01:12:00.318Z,52.73
2023-09-05T01:14:29.447Z,52.82
2023-09-05T01:17:02.337Z,52.98
2023-09-05T01:19:31.454Z,53.12
2023-09-05T01:22:08.386Z,53.38
2023-09-05T01:24:40.049Z,53.41
2023-09-05T01:27:09.214Z,53.78
2023-09-05T01:29:40.324Z,53.70
2023-09-05T01:32:10.887Z,53.27
2023-09-05T01:34:39.374Z,53.78
2023-09-05T01:37:11.725Z,53.79
2023-09-05T01:39:42.017Z,53.97
2023-09-05T01:42:09.913Z,53.74
2023-09-05T01:44:40.086Z,53.72
2023-09-05T01:47:08.592Z,53.55
2023-09-05T01:49:36.617Z,53.97
2023-09-05T01:52:04.836Z,53.83
2023-09-05T01:54:32.744Z,53.46
2023-09-05T01:57:01.896Z,53.49
2023-09-05T01:59:29.668Z,53.73
2023-09-05T02:01:57.476Z,53.96
2023-09-05T02:04:25.367Z,53.77
2023-09-05T02:06:53.344Z,54.02
2023-09-05T02:09:21.109Z,54.25
2023-09-05T02:11:48.899Z,53.98
2023-09-05T02:14:18.037Z,53.46
2023-09-05T02:16:46.015Z,53.63
2023-09-05T02:19:14.958Z,54.51
2023-09-05T02:21:42.698Z,54.01
2023-09-05T02:24:10.475Z,54.20
2023-09-05T02:26:38.821Z,54.22
2023-09-05T02:29:07.164Z,54.00
2023-09-05T02:31:36.512Z,54.13
2023-09-05T02:34:04.350Z,53.92
2023-09-05T02:36:32.606Z,54.36
2023-09-05T02:39:00.342Z,54.09
2023-09-05T02:41:28.094Z,54.50
2023-09-05T02:43:55.893Z,54.29
2023-09-05T02:46:23.791Z,54.42
2023-09-05T02:48:53.003Z,54.72
2023-09-05T02:51:20.759Z,54.11
2023-09-05T02:53:49.595Z,54.66
2023-09-05T02:56:18.892Z,54.71
2023-09-05T02:58:46.643Z,54.11
2023-09-05T03:01:14.507Z,54.47
2023-09-05T03:03:42.384Z,54.59
2023-09-05T03:06:12.456Z,54.86
2023-09-05T03:08:43.055Z,54.63
2023-09-05T03:11:10.987Z,54.39
2023-09-05T03:13:39.485Z,54.83
2023-09-05T03:16:07.349Z,54.88
2023-09-05T03:18:36.570Z,54.69
2023-09-05T03:21:04.573Z,55.06
2023-09-05T03:23:33.866Z,54.75
2023-09-05T03:26:01.833Z,54.51
2023-09-05T03:28:40.595Z,55.00
2023-09-05T03:31:10.965Z,54.88
2023-09-05T03:33:39.144Z,54.64
2023-09-05T03:36:07.561Z,54.52
2023-09-05T03:38:36.930Z,54.34
2023-09-05T03:41:04.844Z,54.67
2023-09-05T03:43:32.665Z,54.51
2023-09-05T03:46:00.471Z,54.41
2023-09-05T03:48:28.530Z,54.29
2023-09-05T03:50:56.376Z,54.98
2023-09-05T03:53:24.673Z,54.80
2023-09-05T03:55:54.089Z,54.78
2023-09-05T03:58:22.220Z,54.69
2023-09-05T04:00:50.003Z,54.22
2023-09-05T04:03:18.464Z,54.09
2023-09-05T04:05:46.354Z,54.44
2023-09-05T04:08:14.124Z,54.52
2023-09-05T04:10:41.956Z,54.62
2023-09-05T04:13:11.058Z,54.80
2023-09-05T04:15:38.941Z,54.70
2023-09-05T04:18:07.270Z,54.06
2023-09-05T04:20:36.910Z,54.38
2023-09-05T04:23:05.840Z,54.36
2023-09-05T04:25:33.891Z,54.63
2023-09-05T04:28:01.809Z,54.55
2023-09-05T04:30:31.026Z,54.89
2023-09-05T04:32:59.074Z,54.82
2023-09-05T04:35:27.003Z,55.08
2023-09-05T04:37:55.623Z,54.94
2023-09-05T04:40:23.783Z,54.83
2023-09-05T04:42:51.970Z,54.69
2023-09-05T04:45:19.776Z,54.79
2023-09-05T04:47:49.018Z,54.62
2023-09-05T04:50:16.781Z,54.55
2023-09-05T04:52:44.491Z,54.52
2023-09-05T04:55:12.275Z,54.54
2023-09-05T04:57:43.414Z,54.83
2023-09-05T05:00:14.755Z,54.62
2023-09-05T05:02:42.961Z,54.84
2023-09-05T05:05:13.055Z,54.53
2023-09-05T05:07:42.107Z,55.00
2023-09-05T05:10:10.371Z,54.92
2023-09-05T05:12:38.252Z,54.43
2023-09-05T05:15:07.061Z,54.41
2023-09-05T05:17:35.234Z,54.72
2023-09-05T05:20:04.881Z,54.77
2023-09-05T05:22:34.079Z,55.10
2023-09-05T05:25:01.889Z,54.97
2023-09-05T05:27:30.192Z,54.80
2023-09-05T05:29:58.222Z,54.65
2023-09-05T05:32:26.014Z,55.10
2023-09-05T05:34:54.209Z,54.44
2023-09-05T05:37:22.091Z,55.02
2023-09-05T05:39:52.010Z,55.42
2023-09-05T05:42:20.909Z,55.48
2023-09-05T05:44:48.698Z,55.25
2023-09-05T05:47:16.448Z,55.10
2023-09-05T05:49:45.161Z,55.17
2023-09-05T05:54:40.683Z,55.70
2023-09-05T05:57:09.836Z,55.71
2023-09-05T05:59:37.936Z,55.72
2023-09-05T06:02:06.601Z,55.08
2023-09-05T06:04:34.442Z,55.27
2023-09-05T06:07:02.470Z,54.95
2023-09-05T06:09:30.505Z,54.87
2023-09-05T06:11:59.385Z,55.54
2023-09-05T06:14:28.879Z,54.93
2023-09-05T06:16:56.796Z,55.54
2023-09-05T06:19:24.556Z,55.21
2023-09-05T06:21:52.560Z,55.38
2023-09-05T06:24:21.647Z,55.66
2023-09-05T06:26:49.538Z,55.09
2023-09-05T06:29:17.329Z,55.53
2023-09-05T06:31:48.921Z,55.77
2023-09-05T06:34:17.590Z,55.36
2023-09-05T06:36:45.490Z,55.09
2023-09-05T06:39:13.372Z,55.19
2023-09-05T06:41:42.690Z,55.36
2023-09-05T06:44:10.483Z,54.83
2023-09-05T06:46:39.161Z,54.92
2023-09-05T06:49:08.324Z,55.21
2023-09-05T06:51:36.475Z,54.84
2023-09-05T06:54:04.449Z,54.79
2023-09-05T06:56:32.272Z,55.09
2023-09-05T06:59:01.204Z,54.88
2023-09-05T07:01:30.453Z,55.17
2023-09-05T07:03:58.536Z,55.20
2023-09-05T07:06:27.689Z,54.79
2023-09-05T07:08:55.452Z,55.15
2023-09-05T07:11:23.315Z,55.48
2023-09-05T07:13:51.499Z,55.25
2023-09-05T07:16:19.433Z,55.16
2023-09-05T07:18:47.416Z,55.26
2023-09-05T07:21:15.365Z,55.37
2023-09-05T07:23:44.547Z,55.71
2023-09-05T07:26:12.571Z,55.39
2023-09-05T07:28:41.036Z,55.80
2023-09-05T07:31:08.903Z,55.94
2023-09-05T07:33:36.997Z,55.57
2023-09-05T07:36:05.164Z,56.04
2023-09-05T07:38:32.944Z,56.13
2023-09-05T07:41:06.013Z,55.95
2023-09-05T07:43:34.942Z,55.92
2023-09-05T07:46:03.269Z,56.09
2023-09-05T07:48:31.165Z,56.11
2023-09-05T07:51:03.071Z,56.20
2023-09-05T07:53:31.032Z,55.82
2023-09-05T07:55:58.861Z,56.17
2023-09-05T07:58:29.984Z,56.09
2023-09-05T08:00:58.351Z,56.41
2023-09-05T08:03:27.699Z,56.13
2023-09-05T08:05:55.732Z,55.97
2023-09-05T08:08:24.146Z,55.76
2023-09-05T08:10:52.183Z,56.21
2023-09-05T08:13:20.102Z,55.88
2023-09-05T08:15:49.398Z,55.99
2023-09-05T08:18:17.316Z,56.05
2023-09-05T08:20:45.375Z,55.85
2023-09-05T08:23:13.455Z,55.93
2023-09-05T08:25:41.472Z,55.81
2023-09-05T08:28:10.446Z,55.79
2023-09-05T08:30:38.795Z,56.01
2023-09-05T08:33:08.112Z,55.99
2023-09-05T08:35:38.307Z,56.11
2023-09-05T08:38:07.191Z,55.66
2023-09-05T08:40:35.551Z,55.69
2023-09-05T08:43:03.573Z,55.67
2023-09-05T08:45:33.110Z,55.80
2023-09-05T08:48:01.573Z,55.81
2023-09-05T08:50:33.118Z,55.83
2023-09-05T08:53:05.723Z,55.11
2023-09-05T08:55:33.751Z,55.49
2023-09-05T08:58:02.622Z,55.43
2023-09-05T09:00:30.474Z,55.56
2023-09-05T09:03:00.648Z,55.42
2023-09-05T09:05:29.458Z,56.16
2023-09-05T09:07:58.989Z,56.49
2023-09-05T09:10:26.870Z,56.52
2023-09-05T09:12:56.392Z,56.06
2023-09-05T09:15:27.174Z,55.93
2023-09-05T09:17:55.252Z,56.10
2023-09-05T09:20:24.686Z,55.28
2023-09-05T09:22:53.976Z,55.06
2023-09-05T09:25:23.380Z,54.76
2023-09-05T09:27:54.641Z,54.47
2023-09-05T09:30:26.637Z,54.46
2023-09-05T09:32:55.343Z,54.61
2023-09-05T09:35:24.508Z,54.29
2023-09-05T09:37:52.260Z,54.23
2023-09-05T09:40:20.134Z,54.35
2023-09-05T09:42:51.221Z,53.70
2023-09-05T09:45:19.939Z,53.09
2023-09-05T09:47:50.028Z,53.20
2023-09-05T09:50:19.176Z,52.74
2023-09-05T09:52:49.636Z,52.74
2023-09-05T09:55:18.624Z,52.61
2023-09-05T09:57:57.173Z,52.83
2023-09-05T10:00:25.750Z,53.51
2023-09-05T10:02:55.398Z,53.41
2023-09-05T10:05:24.993Z,53.22
2023-09-05T10:07:54.213Z,53.40
2023-09-05T10:10:22.851Z,52.65
2023-09-05T10:12:53.933Z,52.96
2023-09-05T10:15:22.944Z,53.22
2023-09-05T10:17:52.604Z,53.06
2023-09-05T10:20:26.063Z,53.47
2023-09-05T10:22:55.553Z,53.63
2023-09-05T10:25:26.891Z,52.78
2023-09-05T10:27:56.414Z,52.71
2023-09-05T10:30:24.375Z,53.11
2023-09-05T10:32:54.926Z,53.18
2023-09-05T10:35:23.768Z,53.94
2023-09-05T10:37:53.716Z,53.61
2023-09-05T10:40:34.232Z,53.05
2023-09-05T10:43:05.084Z,52.89
2023-09-05T10:45:34.951Z,52.84
2023-09-05T10:48:07.231Z,52.36
2023-09-05T10:51:09.957Z,52.84
2023-09-05T10:53:39.027Z,51.94
2023-09-05T10:56:07.261Z,51.57
2023-09-05T10:58:44.624Z,51.47
2023-09-05T11:01:47.003Z,51.80
2023-09-05T11:04:27.489Z,51.80
2023-09-05T11:06:57.264Z,50.74
2023-09-05T11:09:25.978Z,50.88
2023-09-05T11:11:55.031Z,49.65
2023-09-05T11:14:35.869Z,50.19
2023-09-05T11:17:04.786Z,50.58
2023-09-05T11:19:39.167Z,50.33
2023-09-05T11:22:12.618Z,49.66
2023-09-05T11:24:46.259Z,49.53
2023-09-05T11:27:19.187Z,49.37
2023-09-05T11:29:51.026Z,46.68
2023-09-05T11:32:19.037Z,47.11
2023-09-05T11:34:48.440Z,46.65
2023-09-05T11:37:21.410Z,45.41
2023-09-05T11:39:50.870Z,46.40
2023-09-05T11:42:23.847Z,45.34
2023-09-05T11:44:54.922Z,44.52
2023-09-05T11:47:24.429Z,44.82
2023-09-05T11:49:54.152Z,45.01
2023-09-05T11:52:24.646Z,44.92
2023-09-05T11:54:55.034Z,44.19
2023-09-05T11:57:24.386Z,43.73
2023-09-05T11:59:53.655Z,43.00
2023-09-05T12:02:21.535Z,42.92
2023-09-05T12:04:50.175Z,43.67
2023-09-05T12:07:20.239Z,43.94
2023-09-05T12:09:49.315Z,43.63
2023-09-05T12:12:21.003Z,43.56
2023-09-05T12:14:54.422Z,43.78
2023-09-05T12:17:24.315Z,43.29
2023-09-05T12:19:54.082Z,43.12
2023-09-05T12:22:23.865Z,43.02
2023-09-05T12:25:11.267Z,42.62
2023-09-05T12:27:41.197Z,42.39
2023-09-05T12:30:25.917Z,42.31
2023-09-05T12:32:55.798Z,42.00
2023-09-05T12:35:23.849Z,42.02
2023-09-05T12:37:51.588Z,41.49
2023-09-05T12:40:19.502Z,41.12
2023-09-05T12:42:47.332Z,40.80
2023-09-05T12:45:16.614Z,41.54
2023-09-05T12:47:44.782Z,41.21
2023-09-05T12:50:16.236Z,40.75
2023-09-05T12:52:45.149Z,39.79
2023-09-05T12:55:13.542Z,39.52
2023-09-05T12:57:42.211Z,40.48
2023-09-05T13:00:12.220Z,39.57
2023-09-05T13:02:41.925Z,39.68
2023-09-05T13:05:10.235Z,39.53
2023-09-05T13:07:38.794Z,39.68
2023-09-05T13:10:07.858Z,40.13
2023-09-05T13:12:35.985Z,39.29
2023-09-05T13:15:04.198Z,39.89
2023-09-05T13:17:33.468Z,40.03
2023-09-05T13:20:04.646Z,38.98
2023-09-05T13:22:32.441Z,39.36
2023-09-05T13:25:00.780Z,40.03
2023-09-05T13:27:28.558Z,39.88
2023-09-05T13:29:57.010Z,39.94
2023-09-05T13:32:24.828Z,38.73
2023-09-05T13:34:52.635Z,39.47
2023-09-05T13:37:21.725Z,38.87
2023-09-05T13:39:49.607Z,39.13
2023-09-05T13:42:17.847Z,38.44
2023-09-05T13:44:45.671Z,38.53
2023-09-05T13:47:13.602Z,38.01
2023-09-05T13:49:41.377Z,39.06
2023-09-05T13:52:10.444Z,38.50
2023-09-05T13:54:40.340Z,37.69
2023-09-05T13:57:08.892Z,38.19
2023-09-05T13:59:36.817Z,38.97
2023-09-05T14:02:05.494Z,38.69
2023-09-05T14:04:33.346Z,38.13
2023-09-05T14:07:01.740Z,38.09
2023-09-05T14:09:29.566Z,38.42
2023-09-05T14:11:58.667Z,37.96
2023-09-05T14:14:26.586Z,37.22
2023-09-05T14:16:56.139Z,37.78
2023-09-05T14:19:24.705Z,38.09
2023-09-05T14:21:52.592Z,37.34
2023-09-05T14:24:20.519Z,37.33
2023-09-05T14:26:48.649Z,37.40
2023-09-05T14:29:17.803Z,37.70
2023-09-05T14:31:45.705Z,37.67
2023-09-05T14:34:13.604Z,37.83
2023-09-05T14:36:41.484Z,37.66
2023-09-05T14:39:09.354Z,38.16
2023-09-05T14:41:37.185Z,37.87
2023-09-05T14:44:06.031Z,37.97
2023-09-05T14:46:35.652Z,38.54
2023-09-05T14:49:03.941Z,37.33
2023-09-05T14:51:31.900Z,38.11
2023-09-05T14:53:59.690Z,37.90
2023-09-05T14:56:27.457Z,37.66
2023-09-05T14:58:55.315Z,37.95
2023-09-05T15:01:23.222Z,37.68
2023-09-05T15:03:52.495Z,37.75
2023-09-05T15:06:20.342Z,38.34
2023-09-05T15:08:48.166Z,38.33
2023-09-05T15:11:16.987Z,38.04
2023-09-05T15:13:48.338Z,37.69
2023-09-05T15:16:16.179Z,37.42
2023-09-05T15:18:44.005Z,38.24
2023-09-05T15:21:13.190Z,39.68
2023-09-05T15:23:40.905Z,39.41
2023-09-05T15:26:08.965Z,38.50
2023-09-05T15:28:36.934Z,37.97
2023-09-05T15:31:06.149Z,36.60
2023-09-05T15:33:34.388Z,35.90
2023-09-05T15:36:02.918Z,36.05
2023-09-05T15:38:32.723Z,35.42
2023-09-05T15:41:00.529Z,35.44
2023-09-05T15:43:28.419Z,35.39
2023-09-05T15:46:00.047Z,34.91
2023-09-05T15:48:30.568Z,34.63
2023-09-05T15:50:58.713Z,34.26
2023-09-05T15:53:31.908Z,34.88
2023-09-05T15:56:01.011Z,34.83
2023-09-05T15:58:29.111Z,34.23
2023-09-05T16:00:58.833Z,35.10
2023-09-05T16:03:29.729Z,35.52
2023-09-05T16:06:00.103Z,35.17
2023-09-05T16:08:29.636Z,35.33
2023-09-05T16:11:10.094Z,34.98
2023-09-05T16:13:38.418Z,35.63
2023-09-05T16:16:08.240Z,35.20
2023-09-05T16:18:38.018Z,36.01
2023-09-05T16:21:06.739Z,36.63
2023-09-05T16:23:34.825Z,37.18
2023-09-05T16:26:02.807Z,37.23
2023-09-05T16:28:32.019Z,37.73
2023-09-05T16:30:59.884Z,37.75
2023-09-05T16:33:29.513Z,38.29
2023-09-05T16:36:01.817Z,38.19
2023-09-05T16:38:30.024Z,39.64
2023-09-05T16:40:58.443Z,39.59
2023-09-05T16:43:26.434Z,39.39
2023-09-05T16:45:58.240Z,39.78
2023-09-05T16:48:27.029Z,39.73
2023-09-05T16:50:55.188Z,40.19
2023-09-05T16:53:23.431Z,40.45
2023-09-05T16:55:51.557Z,41.08
2023-09-05T16:58:19.338Z,41.17
2023-09-05T17:00:47.216Z,40.93
2023-09-05T17:03:16.574Z,41.08
2023-09-05T17:05:44.632Z,41.56
2023-09-05T17:08:12.502Z,41.16
2023-09-05T17:10:40.408Z,41.34
2023-09-05T17:13:10.345Z,41.85
2023-09-05T17:15:38.317Z,41.98
2023-09-05T17:18:06.822Z,42.07
2023-09-05T17:20:36.101Z,42.34
2023-09-05T17:23:04.399Z,41.77
2023-09-05T17:25:32.236Z,42.26
2023-09-05T17:28:00.117Z,42.34
2023-09-05T17:30:29.182Z,42.06
2023-09-05T17:32:57.973Z,42.37
2023-09-05T17:35:25.951Z,42.39
2023-09-05T17:37:55.064Z,42.71
2023-09-05T17:40:22.845Z,42.66
2023-09-05T17:42:50.669Z,43.20
2023-09-05T17:45:20.492Z,43.55
2023-09-05T17:47:48.828Z,43.00
2023-09-05T17:50:16.797Z,43.01
2023-09-05T17:52:44.493Z,43.51
2023-09-05T17:55:13.701Z,43.79
2023-09-05T17:57:42.708Z,44.19
2023-09-05T18:00:11.504Z,44.64
2023-09-05T18:02:44.554Z,44.15
2023-09-05T18:05:12.357Z,44.81
2023-09-05T18:07:42.574Z,44.79
2023-09-05T18:10:13.344Z,45.28
2023-09-05T18:12:41.403Z,45.52
2023-09-05T18:15:11.518Z,45.98
2023-09-05T18:17:39.557Z,45.74
2023-09-05T18:20:09.117Z,46.27
2023-09-05T18:22:37.660Z,46.63
2023-09-05T18:25:05.847Z,46.58
2023-09-05T18:27:35.028Z,46.73
2023-09-05T18:30:03.676Z,46.78
2023-09-05T18:32:31.636Z,47.45
2023-09-05T18:34:59.430Z,47.24
2023-09-05T18:37:28.326Z,47.34
2023-09-05T18:39:56.190Z,47.59
2023-09-05T18:42:25.059Z,47.83
2023-09-05T18:44:54.901Z,48.21
2023-09-05T18:47:22.748Z,47.87
2023-09-05T18:49:50.467Z,48.09
2023-09-05T18:52:18.403Z,48.56
2023-09-05T18:54:46.256Z,48.10
2023-09-05T18:57:14.103Z,48.66
2023-09-05T18:59:42.139Z,48.38
2023-09-05T19:02:12.294Z,48.68
2023-09-05T19:04:40.223Z,48.58
2023-09-05T19:07:09.961Z,49.54
2023-09-05T19:09:38.067Z,49.25
2023-09-05T19:12:07.375Z,49.19
2023-09-05T19:14:35.586Z,49.85
2023-09-05T19:17:03.533Z,49.77
2023-09-05T19:19:33.688Z,49.69
2023-09-05T19:22:03.657Z,50.12
2023-09-05T19:24:32.420Z,50.18
2023-09-05T19:27:00.262Z,50.50
2023-09-05T19:29:29.744Z,50.60
2023-09-05T19:31:57.697Z,50.53
2023-09-05T19:34:25.677Z,50.94
2023-09-05T19:36:55.158Z,50.94
2023-09-05T19:39:26.912Z,50.92
2023-09-05T19:41:54.840Z,51.01
2023-09-05T19:44:22.622Z,51.16
2023-09-05T19:46:50.450Z,51.37
2023-09-05T19:49:18.382Z,51.32
2023-09-05T19:51:46.249Z,52.02
2023-09-05T19:54:17.582Z,51.63
2023-09-05T19:56:45.445Z,51.73
2023-09-05T19:59:13.285Z,52.20
2023-09-05T20:01:41.084Z,52.35
2023-09-05T20:04:09.136Z,52.43
2023-09-05T20:06:38.010Z,52.47
2023-09-05T20:09:08.048Z,52.59
2023-09-05T20:11:37.716Z,52.91
2023-09-05T20:14:05.745Z,52.85
2023-09-05T20:16:33.584Z,52.90
2023-09-05T20:19:09.165Z,52.83
2023-09-05T20:21:37.593Z,52.62
2023-09-05T20:24:06.405Z,52.55
2023-09-05T20:26:34.167Z,53.10
2023-09-05T20:29:03.706Z,53.21
2023-09-05T20:31:31.656Z,52.91
2023-09-05T20:33:59.501Z,53.42
2023-09-05T20:36:27.403Z,53.67
2023-09-05T20:38:55.168Z,53.60
2023-09-05T20:41:25.228Z,53.70
2023-09-05T20:43:53.675Z,53.90
2023-09-05T20:46:23.726Z,54.12
2023-09-05T20:48:51.757Z,54.09
2023-09-05T20:51:19.747Z,53.37
2023-09-05T20:53:47.672Z,53.60
2023-09-05T20:56:17.202Z,53.30
2023-09-05T20:58:44.992Z,53.87
2023-09-05T21:01:14.887Z,53.81
2023-09-05T21:03:44.263Z,53.51
2023-09-05T21:06:13.535Z,53.39
2023-09-05T21:08:41.813Z,53.28
2023-09-05T21:11:11.065Z,53.45
2023-09-05T21:13:38.911Z,53.39
2023-09-05T21:16:09.496Z,53.41
2023-09-05T21:18:39.043Z,53.44
2023-09-05T21:21:10.367Z,53.44
2023-09-05T21:23:38.719Z,53.55
2023-09-05T21:26:06.788Z,53.18
2023-09-05T21:28:34.782Z,53.35
2023-09-05T21:31:02.835Z,53.42
2023-09-05T21:33:31.821Z,53.16
2023-09-05T21:35:59.702Z,53.37
2023-09-05T21:38:29.008Z,53.40
2023-09-05T21:40:57.516Z,53.54
2023-09-05T21:43:25.368Z,53.60
2023-09-05T21:45:53.295Z,53.64
2023-09-05T21:48:22.039Z,53.45
2023-09-05T21:50:49.849Z,53.54
2023-09-05T21:53:17.760Z,53.70
2023-09-05T21:55:46.909Z,53.84
2023-09-05T21:58:14.632Z,53.77
2023-09-05T22:00:44.069Z,53.62
2023-09-05T22:03:12.413Z,54.10
2023-09-05T22:05:40.451Z,53.82
2023-09-05T22:08:08.810Z,53.95
2023-09-05T22:10:36.648Z,54.19
2023-09-05T22:13:06.472Z,54.16
2023-09-05T22:15:35.621Z,54.29
2023-09-05T22:18:04.114Z,54.26
2023-09-05T22:20:41.133Z,54.13
2023-09-05T22:23:13.712Z,54.21
2023-09-05T22:25:42.964Z,54.21
2023-09-05T22:28:12.268Z,54.45
2023-09-05T22:30:40.851Z,54.56
2023-09-05T22:33:10.041Z,54.33
2023-09-05T22:35:37.963Z,54.24
2023-09-05T22:38:06.419Z,54.33
2023-09-05T22:40:34.196Z,54.16
2023-09-05T22:43:05.780Z,54.25
2023-09-05T22:45:35.091Z,54.38
2023-09-05T22:48:03.672Z,54.29
2023-09-05T22:50:31.746Z,54.31
2023-09-05T22:53:00.028Z,54.03
2023-09-05T22:55:38.664Z,54.53
2023-09-05T22:58:06.951Z,54.49
2023-09-05T23:00:39.375Z,54.28
2023-09-05T23:03:08.074Z,54.27
2023-09-05T23:05:36.105Z,54.40
2023-09-05T23:08:04.272Z,54.14
2023-09-05T23:10:32.198Z,54.00
2023-09-05T23:13:00.026Z,54.20
2023-09-05T23:15:27.947Z,54.44
2023-09-05T23:17:57.324Z,54.37
2023-09-05T23:20:25.723Z,54.19
2023-09-05T23:22:53.515Z,54.57
2023-09-05T23:25:23.457Z,54.12
2023-09-05T23:27:52.095Z,54.44
2023-09-05T23:30:20.063Z,54.32
2023-09-05T23:32:47.982Z,54.43
2023-09-05T23:35:19.489Z,54.37
2023-09-05T23:37:47.271Z,54.44
2023-09-05T23:40:17.723Z,54.43
2023-09-05T23:42:45.799Z,54.09
2023-09-05T23:45:16.783Z,54.47
2023-09-05T23:47:48.347Z,54.44
2023-09-05T23:50:19.914Z,54.36
2023-09-05T23:52:50.100Z,54.35
2023-09-05T23:55:19.332Z,54.56
2023-09-05T23:57:47.381Z,55.08
